Terminal Aerodrome Forecast
Issued by NWS

Home | Current Version | Previous Version | Text Only | Print | Product List | Glossary On
Versions: 1 2 3 4 5 6 7 8 9 10 11 12 13 14 15 16 17 18 19 20 21
000
FTUS41 KBGM 312300
TAFELM
TAF
KELM 312328Z 0100/0124 28004KT P6SM FEW060
     FM010600 00000KT 4SM BR SKC
      TEMPO 0108/0112 1SM BR FEW002
     FM011300 22007KT P6SM FEW050 SCT250=

USA.gov is the U.S. government's official web portal to all federal, state and local government web resources and services.